createdAt,value
2023-04-19T00:02:25.876Z,65.80
2023-04-19T00:04:56.440Z,65.54
2023-04-19T00:07:26.384Z,65.95
2023-04-19T00:09:56.229Z,65.50
2023-04-19T00:12:26.460Z,65.61
2023-04-19T00:14:56.242Z,65.65
2023-04-19T00:17:27.242Z,66.05
2023-04-19T00:19:57.690Z,66.44
2023-04-19T00:22:27.703Z,66.62
2023-04-19T00:24:57.542Z,65.91
2023-04-19T00:27:27.703Z,66.43
2023-04-19T00:29:57.735Z,66.58
2023-04-19T00:32:27.674Z,66.57
2023-04-19T00:34:57.225Z,66.57
2023-04-19T00:37:27.032Z,67.37
2023-04-19T00:39:56.842Z,67.55
2023-04-19T00:42:28.063Z,66.64
2023-04-19T00:44:57.942Z,66.55
2023-04-19T00:47:27.890Z,67.20
2023-04-19T00:49:57.936Z,67.08
2023-04-19T00:52:28.417Z,66.83
2023-04-19T00:54:59.965Z,67.18
2023-04-19T00:57:31.295Z,67.08
2023-04-19T01:00:02.163Z,67.26
2023-04-19T01:02:32.306Z,66.86
2023-04-19T01:05:02.311Z,67.49
2023-04-19T01:07:34.032Z,67.19
2023-04-19T01:10:06.002Z,67.55
2023-04-19T01:12:36.022Z,68.04
2023-04-19T01:15:07.890Z,68.51
2023-04-19T01:17:38.635Z,68.38
2023-04-19T01:20:10.610Z,68.67
2023-04-19T01:22:40.714Z,68.82
2023-04-19T01:25:11.433Z,68.60
2023-04-19T01:27:41.274Z,69.12
2023-04-19T01:30:13.507Z,68.19
2023-04-19T01:32:43.661Z,68.67
2023-04-19T01:35:14.007Z,69.22
2023-04-19T01:37:43.850Z,69.39
2023-04-19T01:40:15.274Z,69.04
2023-04-19T01:42:45.171Z,69.85
2023-04-19T01:45:14.753Z,70.08
2023-04-19T01:47:45.025Z,70.08
2023-04-19T01:50:14.816Z,69.75
2023-04-19T01:52:44.420Z,69.78
2023-04-19T01:55:14.028Z,69.70
2023-04-19T01:57:43.829Z,70.12
2023-04-19T02:00:15.529Z,70.82
2023-04-19T02:02:44.932Z,71.01
2023-04-19T02:05:15.194Z,71.43
2023-04-19T02:07:44.989Z,71.04
2023-04-19T02:10:14.689Z,70.81
2023-04-19T02:12:44.607Z,70.86
2023-04-19T02:15:14.625Z,70.59
2023-04-19T02:17:46.528Z,71.11
2023-04-19T02:20:16.286Z,71.48
2023-04-19T02:22:47.761Z,70.71
2023-04-19T02:25:19.350Z,70.91
2023-04-19T02:27:49.179Z,70.95
2023-04-19T02:30:20.297Z,71.73
2023-04-19T02:32:54.871Z,71.50
2023-04-19T02:35:24.590Z,71.29
2023-04-19T02:37:54.449Z,71.05
2023-04-19T02:40:25.606Z,71.02
2023-04-19T02:42:55.692Z,71.72
2023-04-19T02:45:25.603Z,71.67
2023-04-19T02:47:57.183Z,71.33
2023-04-19T02:50:28.759Z,71.98
2023-04-19T02:52:59.279Z,72.10
2023-04-19T02:55:29.767Z,72.37
2023-04-19T02:58:06.290Z,72.65
2023-04-19T03:00:37.900Z,72.65
2023-04-19T03:03:09.830Z,72.58
2023-04-19T03:05:40.045Z,71.68
2023-04-19T03:08:11.995Z,72.89
2023-04-19T03:10:42.007Z,72.20
2023-04-19T03:13:11.806Z,72.79
2023-04-19T03:15:42.349Z,72.08
2023-04-19T03:18:12.800Z,73.03
2023-04-19T03:20:43.982Z,72.01
2023-04-19T03:23:13.805Z,72.70
2023-04-19T03:25:43.687Z,72.96
2023-04-19T03:28:18.082Z,72.44
2023-04-19T03:31:02.610Z,72.43
2023-04-19T03:33:32.462Z,72.78
2023-04-19T03:36:02.346Z,72.71
2023-04-19T03:38:32.493Z,72.79
2023-04-19T03:41:02.405Z,72.86
2023-04-19T03:43:33.948Z,72.52
2023-04-19T03:46:05.174Z,72.74
2023-04-19T03:48:35.641Z,72.92
2023-04-19T03:51:05.595Z,72.95
2023-04-19T03:53:36.388Z,72.37
2023-04-19T03:56:08.744Z,72.04
2023-04-19T03:58:40.553Z,71.68
2023-04-19T04:01:12.175Z,72.24
2023-04-19T04:03:42.180Z,72.74
2023-04-19T04:06:12.235Z,73.17
2023-04-19T04:08:42.151Z,72.63
2023-04-19T04:11:12.332Z,73.04
2023-04-19T04:13:43.071Z,73.13
2023-04-19T04:16:17.352Z,72.87
2023-04-19T04:18:47.295Z,73.25
2023-04-19T04:21:17.189Z,72.43
2023-04-19T04:23:49.737Z,72.43
2023-04-19T04:26:28.652Z,72.69
2023-04-19T04:29:01.932Z,72.99
2023-04-19T04:31:32.083Z,72.56
2023-04-19T04:34:02.200Z,72.59
2023-04-19T04:36:32.970Z,71.88
2023-04-19T04:39:03.686Z,71.21
2023-04-19T04:41:35.280Z,71.43
2023-04-19T04:44:12.583Z,71.12
2023-04-19T04:46:40.955Z,70.97
2023-04-19T04:49:11.941Z,71.35
2023-04-19T04:51:43.485Z,71.44
2023-04-19T04:54:13.597Z,71.04
2023-04-19T04:56:43.940Z,70.70
2023-04-19T04:59:14.179Z,70.32
2023-04-19T05:01:46.038Z,70.62
2023-04-19T05:04:16.349Z,70.22
2023-04-19T05:06:46.766Z,69.99
2023-04-19T05:09:18.282Z,70.02
2023-04-19T05:11:48.525Z,69.61
2023-04-19T05:14:18.485Z,69.16
2023-04-19T05:16:48.423Z,68.80
2023-04-19T05:19:18.307Z,69.55
2023-04-19T05:21:50.254Z,69.08
2023-04-19T05:24:20.281Z,69.28
2023-04-19T05:26:50.693Z,68.75
2023-04-19T05:29:20.767Z,68.96
2023-04-19T05:31:52.644Z,68.65
2023-04-19T05:34:26.694Z,68.39
2023-04-19T05:36:57.477Z,68.10
2023-04-19T05:39:28.473Z,68.25
2023-04-19T05:42:00.502Z,67.09
2023-04-19T05:44:30.354Z,66.71
2023-04-19T05:47:00.668Z,66.90
2023-04-19T05:49:34.845Z,66.24
2023-04-19T05:52:21.329Z,65.78
2023-04-19T05:54:52.614Z,65.25
2023-04-19T05:57:22.307Z,64.55
2023-04-19T05:59:52.116Z,64.68
2023-04-19T06:02:23.447Z,64.55
2023-04-19T06:04:53.680Z,64.71
2023-04-19T06:07:31.670Z,65.32
2023-04-19T06:09:55.229Z,64.36
2023-04-19T06:12:25.084Z,63.96
2023-04-19T06:14:56.116Z,63.62
2023-04-19T06:17:26.329Z,63.40
2023-04-19T06:19:56.750Z,62.94
2023-04-19T06:22:26.814Z,60.51
2023-04-19T06:24:56.614Z,60.51
2023-04-19T06:27:26.322Z,60.12
2023-04-19T06:29:56.172Z,59.54
2023-04-19T06:32:26.068Z,59.19
2023-04-19T06:34:55.995Z,58.30
2023-04-19T06:37:25.851Z,57.65
2023-04-19T06:39:55.681Z,57.65
2023-04-19T06:42:26.223Z,56.28
2023-04-19T06:44:58.485Z,56.58
2023-04-19T06:47:28.550Z,55.78
2023-04-19T06:49:58.615Z,55.78
2023-04-19T06:52:29.642Z,54.96
2023-04-19T06:54:59.420Z,53.71
2023-04-19T06:57:29.256Z,53.24
2023-04-19T06:59:59.119Z,52.62
2023-04-19T07:02:28.857Z,52.90
2023-04-19T07:04:59.048Z,51.62
2023-04-19T07:07:28.880Z,51.28
2023-04-19T07:09:58.694Z,50.80
2023-04-19T07:12:28.452Z,49.97
2023-04-19T07:14:58.598Z,49.30
2023-04-19T07:17:28.507Z,48.56
2023-04-19T07:19:58.371Z,49.27
2023-04-19T07:22:28.561Z,48.90
2023-04-19T07:24:58.638Z,48.12
2023-04-19T07:27:28.673Z,46.87
2023-04-19T07:29:58.225Z,46.87
2023-04-19T07:32:28.001Z,46.31
2023-04-19T07:34:57.836Z,45.94
2023-04-19T07:37:28.430Z,45.42
2023-04-19T07:39:58.237Z,44.84
2023-04-19T07:42:29.784Z,42.94
2023-04-19T07:45:00.152Z,43.07
2023-04-19T07:47:29.974Z,43.67
2023-04-19T07:49:59.900Z,42.80
2023-04-19T07:52:29.738Z,41.83
2023-04-19T07:54:59.605Z,42.30
2023-04-19T07:57:29.416Z,40.81
2023-04-19T07:59:59.618Z,40.73
2023-04-19T08:02:29.602Z,40.48
2023-04-19T08:04:59.302Z,39.55
2023-04-19T08:07:29.321Z,39.79
2023-04-19T08:09:59.167Z,39.89
2023-04-19T08:12:38.323Z,39.39
2023-04-19T08:15:07.847Z,38.56
2023-04-19T08:17:41.418Z,38.56
2023-04-19T08:20:06.964Z,39.24
2023-04-19T08:22:36.830Z,39.03
2023-04-19T08:25:09.353Z,38.16
2023-04-19T08:27:39.309Z,38.95
2023-04-19T08:30:11.631Z,39.09
2023-04-19T08:32:41.516Z,38.47
2023-04-19T08:35:11.829Z,38.07
2023-04-19T08:37:41.685Z,37.58
2023-04-19T08:40:11.489Z,37.77
2023-04-19T08:42:41.419Z,37.99
2023-04-19T08:47:58.946Z,37.82
2023-04-19T08:50:28.862Z,37.89
2023-04-19T08:52:55.870Z,36.98
2023-04-19T08:55:22.362Z,37.18
2023-04-19T08:57:52.671Z,37.35
2023-04-19T09:00:22.976Z,37.40
2023-04-19T09:02:56.119Z,37.73
2023-04-19T09:05:26.596Z,37.73
2023-04-19T09:07:58.074Z,38.28
2023-04-19T09:10:28.304Z,36.74
2023-04-19T09:13:03.001Z,36.03
2023-04-19T09:15:41.703Z,35.31
2023-04-19T09:18:12.023Z,36.28
2023-04-19T09:20:45.597Z,35.74
2023-04-19T09:23:18.125Z,36.29
2023-04-19T09:28:30.856Z,35.68
2023-04-19T09:31:10.951Z,35.58
2023-04-19T09:33:39.756Z,34.53
2023-04-19T09:36:13.634Z,34.60
2023-04-19T09:38:50.499Z,34.33
2023-04-19T09:41:20.764Z,34.63
2023-04-19T09:44:02.262Z,33.77
2023-04-19T09:46:38.301Z,33.77
2023-04-19T09:49:27.224Z,33.37
2023-04-19T09:51:52.915Z,33.08
2023-04-19T09:54:24.693Z,33.68
2023-04-19T09:56:57.431Z,33.35
2023-04-19T09:59:25.997Z,32.35
2023-04-19T10:01:57.152Z,32.97
2023-04-19T10:04:38.185Z,32.20
2023-04-19T10:07:28.518Z,32.38
2023-04-19T10:09:34.090Z,32.14
2023-04-19T10:12:18.470Z,33.04
2023-04-19T10:14:37.673Z,33.01
2023-04-19T10:17:08.031Z,33.26
2023-04-19T10:19:40.424Z,33.28
2023-04-19T10:22:14.286Z,32.98
2023-04-19T10:25:03.320Z,32.98
2023-04-19T10:27:35.706Z,32.65
2023-04-19T10:30:11.388Z,32.35
2023-04-19T10:32:42.495Z,32.37
2023-04-19T10:35:23.538Z,32.07
2023-04-19T10:38:16.402Z,32.63
2023-04-19T10:41:01.584Z,32.70
2023-04-19T10:43:34.292Z,33.42
2023-04-19T10:46:12.786Z,32.93
2023-04-19T10:48:56.668Z,32.87
2023-04-19T10:51:31.457Z,32.62
2023-04-19T10:54:02.489Z,32.02
2023-04-19T10:56:39.309Z,32.28
2023-04-19T10:59:16.123Z,31.75
2023-04-19T11:01:54.221Z,31.17
2023-04-19T11:04:27.502Z,31.31
2023-04-19T11:07:01.718Z,31.79
2023-04-19T11:09:39.533Z,31.12
2023-04-19T11:12:13.617Z,30.66
2023-04-19T11:14:46.029Z,30.55
2023-04-19T11:17:31.129Z,31.00
2023-04-19T11:20:09.806Z,30.20
2023-04-19T11:22:45.551Z,30.10
2023-04-19T11:25:20.579Z,30.10
2023-04-19T11:27:52.249Z,29.95
2023-04-19T11:30:23.579Z,29.28
2023-04-19T11:32:58.186Z,28.67
2023-04-19T11:35:30.438Z,28.70
2023-04-19T11:38:01.611Z,28.92
2023-04-19T11:40:32.668Z,28.82
2023-04-19T11:43:04.864Z,27.72
2023-04-19T11:45:40.246Z,26.85
2023-04-19T11:48:16.175Z,26.27
2023-04-19T11:50:48.587Z,26.81
2023-04-19T11:53:22.751Z,26.77
2023-04-19T11:56:01.086Z,26.54
2023-04-19T11:58:36.374Z,26.35
2023-04-19T12:01:12.519Z,26.01
2023-04-19T12:03:45.015Z,26.09
2023-04-19T12:06:17.207Z,25.81
2023-04-19T12:08:52.108Z,25.81
2023-04-19T12:11:24.766Z,23.86
2023-04-19T12:14:15.120Z,23.98
2023-04-19T12:16:47.996Z,24.15
2023-04-19T12:19:20.657Z,24.02
2023-04-19T12:21:50.942Z,23.80
2023-04-19T12:24:20.816Z,24.21
2023-04-19T12:26:58.975Z,23.89
2023-04-19T12:29:29.507Z,24.25
2023-04-19T12:31:59.377Z,24.39
2023-04-19T12:34:29.474Z,24.21
2023-04-19T12:36:59.328Z,24.57
2023-04-19T12:39:29.110Z,24.06
2023-04-19T12:41:58.996Z,24.28
2023-04-19T12:44:28.908Z,24.03
2023-04-19T12:46:58.702Z,24.03
2023-04-19T12:49:28.595Z,24.54
2023-04-19T12:51:58.396Z,24.98
2023-04-19T12:54:27.915Z,23.92
2023-04-19T12:56:57.995Z,24.31
2023-04-19T12:59:27.815Z,24.42
2023-04-19T13:01:58.298Z,24.20
2023-04-19T13:04:28.112Z,24.54
2023-04-19T13:06:57.930Z,24.69
2023-04-19T13:09:29.779Z,24.94
2023-04-19T13:11:59.858Z,24.75
2023-04-19T13:14:29.918Z,25.12
2023-04-19T13:16:59.957Z,24.71
2023-04-19T13:19:29.807Z,24.49
2023-04-19T13:21:59.607Z,24.69
2023-04-19T13:24:29.152Z,24.50
2023-04-19T13:26:59.016Z,25.00
2023-04-19T13:29:29.111Z,24.95
2023-04-19T13:31:59.404Z,24.99
2023-04-19T13:34:29.226Z,24.60
2023-04-19T13:36:59.500Z,24.79
2023-04-19T13:39:29.301Z,24.33
2023-04-19T13:41:59.264Z,24.69
2023-04-19T13:44:29.978Z,24.43
2023-04-19T13:46:59.903Z,24.41
2023-04-19T13:49:29.813Z,24.57
2023-04-19T13:51:59.629Z,24.47
2023-04-19T13:54:29.444Z,24.99
2023-04-19T13:56:59.315Z,24.05
2023-04-19T13:59:30.192Z,24.22
2023-04-19T14:02:00.084Z,24.42
2023-04-19T14:04:30.201Z,24.27
2023-04-19T14:07:00.286Z,24.63
2023-04-19T14:09:30.131Z,24.32
2023-04-19T14:12:00.260Z,23.60
2023-04-19T14:14:32.000Z,24.14
2023-04-19T14:17:01.996Z,24.38
2023-04-19T14:19:31.777Z,24.08
2023-04-19T14:22:01.707Z,24.18
2023-04-19T14:24:31.572Z,23.97
2023-04-19T14:29:32.552Z,24.50
2023-04-19T14:32:16.681Z,24.28
2023-04-19T14:34:33.969Z,24.03
2023-04-19T14:37:03.794Z,24.03
2023-04-19T14:39:33.587Z,24.24
2023-04-19T14:42:03.378Z,24.44
2023-04-19T14:44:33.214Z,25.08
2023-04-19T14:47:03.003Z,24.52
2023-04-19T14:49:32.822Z,24.74
2023-04-19T14:52:03.837Z,25.12
2023-04-19T14:54:33.757Z,25.24
2023-04-19T14:57:04.318Z,25.56
2023-04-19T14:59:34.229Z,24.74
2023-04-19T15:02:06.444Z,24.82
2023-04-19T15:04:40.817Z,26.00
2023-04-19T15:07:08.635Z,25.43
2023-04-19T15:09:38.723Z,24.99
2023-04-19T15:12:09.677Z,25.31
2023-04-19T15:14:40.388Z,25.34
2023-04-19T15:17:10.204Z,25.37
2023-04-19T15:19:40.352Z,26.39
2023-04-19T15:22:11.414Z,26.24
2023-04-19T15:24:41.523Z,26.24
2023-04-19T15:27:11.332Z,26.69
2023-04-19T15:32:10.357Z,26.73
2023-04-19T15:34:40.213Z,27.00
2023-04-19T15:37:10.100Z,26.64
2023-04-19T15:39:39.932Z,27.44
2023-04-19T15:42:11.502Z,27.44
2023-04-19T15:44:43.568Z,26.89
2023-04-19T15:47:13.212Z,26.70
2023-04-19T15:49:43.304Z,27.17
2023-04-19T15:52:13.133Z,27.37
2023-04-19T15:54:42.992Z,27.48
2023-04-19T15:57:12.810Z,27.45
2023-04-19T15:59:42.903Z,27.94
2023-04-19T16:02:12.527Z,27.36
2023-04-19T16:04:42.591Z,27.65
2023-04-19T16:07:12.547Z,27.16
2023-04-19T16:09:42.616Z,27.36
2023-04-19T16:12:14.421Z,27.00
2023-04-19T16:14:44.206Z,27.87
2023-04-19T16:17:14.042Z,27.25
2023-04-19T16:19:43.854Z,27.65
2023-04-19T16:22:13.386Z,27.06
2023-04-19T16:24:43.276Z,27.24
2023-04-19T16:27:13.708Z,27.66
2023-04-19T16:29:43.497Z,27.67
2023-04-19T16:32:13.126Z,28.44
2023-04-19T16:34:42.628Z,28.66
2023-04-19T16:37:12.438Z,28.66
2023-04-19T16:39:42.405Z,28.43
2023-04-19T16:42:12.212Z,28.68
2023-04-19T16:44:41.987Z,28.79
2023-04-19T16:47:12.021Z,28.94
2023-04-19T16:49:41.855Z,29.41
2023-04-19T16:52:11.576Z,28.80
2023-04-19T16:54:41.076Z,28.88
2023-04-19T16:57:11.545Z,28.48
2023-04-19T16:59:41.336Z,28.68
2023-04-19T17:02:11.982Z,28.73
2023-04-19T17:04:42.389Z,29.17
2023-04-19T17:07:12.422Z,29.25
2023-04-19T17:09:42.280Z,29.25
2023-04-19T17:12:12.077Z,29.45
2023-04-19T17:14:41.879Z,29.41
2023-04-19T17:17:11.688Z,29.34
2023-04-19T17:19:41.839Z,29.72
2023-04-19T17:22:11.896Z,30.25
2023-04-19T17:24:41.757Z,29.64
2023-04-19T17:27:11.836Z,29.78
2023-04-19T17:29:41.658Z,29.35
2023-04-19T17:32:11.627Z,29.44
2023-04-19T17:34:41.219Z,28.84
2023-04-19T17:37:11.063Z,28.50
2023-04-19T17:39:40.864Z,29.32
2023-04-19T17:42:11.449Z,29.77
2023-04-19T17:44:41.272Z,30.71
2023-04-19T17:47:11.048Z,31.01
2023-04-19T17:49:40.887Z,31.01
2023-04-19T17:52:11.580Z,31.13
2023-04-19T17:54:41.396Z,31.67
2023-04-19T17:57:11.171Z,32.19
2023-04-19T17:59:41.143Z,32.02
2023-04-19T18:02:11.018Z,32.15
2023-04-19T18:04:42.642Z,32.09
2023-04-19T18:07:12.751Z,31.88
2023-04-19T18:09:42.537Z,31.86
2023-04-19T18:12:12.063Z,32.25
2023-04-19T18:14:41.855Z,31.82
2023-04-19T18:17:11.644Z,32.34
2023-04-19T18:19:41.733Z,32.28
2023-04-19T18:22:11.693Z,32.68
2023-04-19T18:24:43.140Z,32.43
2023-04-19T18:27:12.998Z,30.96
2023-04-19T18:29:42.814Z,30.83
2023-04-19T18:32:12.349Z,31.00
2023-04-19T18:34:42.235Z,29.86
2023-04-19T18:37:18.423Z,30.58
2023-04-19T18:39:47.961Z,30.20
2023-04-19T18:42:17.500Z,29.54
2023-04-19T18:44:52.872Z,29.68
2023-04-19T18:47:18.831Z,30.05
2023-04-19T18:50:02.793Z,30.12
2023-04-19T18:52:20.133Z,30.16
2023-04-19T18:54:50.490Z,29.59
2023-04-19T18:57:23.565Z,29.65
2023-04-19T18:59:52.050Z,30.16
2023-04-19T19:02:21.904Z,29.95
2023-04-19T19:04:57.856Z,29.88
2023-04-19T19:07:35.675Z,30.05
2023-04-19T19:09:56.693Z,29.82
2023-04-19T19:12:26.889Z,29.83
2023-04-19T19:14:57.062Z,30.37
2023-04-19T19:17:28.279Z,30.69
2023-04-19T19:19:58.221Z,30.71
2023-04-19T19:22:28.988Z,30.71
2023-04-19T19:24:58.907Z,30.76
2023-04-19T19:27:29.260Z,31.15
2023-04-19T19:29:59.111Z,31.65
2023-04-19T19:32:28.941Z,31.72
2023-04-19T19:35:02.195Z,31.72
2023-04-19T19:37:30.952Z,31.83
2023-04-19T19:40:04.185Z,32.13
2023-04-19T19:42:32.448Z,32.36
2023-04-19T19:45:05.431Z,32.03
2023-04-19T19:47:35.709Z,33.48
2023-04-19T19:52:39.587Z,33.13
2023-04-19T19:55:11.634Z,33.04
2023-04-19T20:00:36.779Z,33.34
2023-04-19T20:05:19.299Z,33.82
2023-04-19T20:10:20.552Z,33.91
2023-04-19T20:12:51.836Z,33.49
2023-04-19T20:15:22.520Z,33.99
2023-04-19T20:17:52.382Z,33.45
2023-04-19T20:20:21.960Z,34.31
2023-04-19T20:22:51.794Z,34.16
2023-04-19T20:25:21.777Z,33.91
2023-04-19T20:27:51.709Z,34.65
2023-04-19T20:30:21.846Z,34.65
2023-04-19T20:32:51.691Z,34.67
2023-04-19T20:35:21.475Z,34.67
2023-04-19T20:37:51.662Z,34.87
2023-04-19T20:40:22.854Z,34.37
2023-04-19T20:42:52.678Z,35.04
2023-04-19T20:45:22.460Z,36.13
2023-04-19T20:47:54.188Z,35.36
2023-04-19T20:50:23.866Z,36.02
2023-04-19T20:52:53.736Z,36.33
2023-04-19T20:55:23.673Z,35.94
2023-04-19T20:57:53.839Z,36.33
2023-04-19T21:00:23.849Z,36.36
2023-04-19T21:02:53.886Z,36.20
2023-04-19T21:05:23.928Z,35.46
2023-04-19T21:07:53.715Z,36.68
2023-04-19T21:10:23.534Z,36.13
2023-04-19T21:12:53.333Z,35.89
2023-04-19T21:15:23.177Z,35.89
2023-04-19T21:17:53.014Z,35.68
2023-04-19T21:20:22.886Z,35.46
2023-04-19T21:22:52.711Z,35.65
2023-04-19T21:25:22.528Z,35.76
2023-04-19T21:27:52.719Z,35.26
2023-04-19T21:30:23.602Z,35.05
2023-04-19T21:32:54.088Z,34.73
2023-04-19T21:35:23.898Z,35.57
2023-04-19T21:37:53.722Z,35.37
2023-04-19T21:40:23.366Z,34.72
2023-04-19T21:42:53.220Z,34.72
2023-04-19T21:45:23.512Z,35.01
2023-04-19T21:47:53.347Z,35.12
2023-04-19T21:50:22.959Z,35.12
2023-04-19T21:52:52.821Z,34.80
2023-04-19T21:55:22.669Z,34.83
2023-04-19T21:57:52.754Z,34.55
2023-04-19T22:00:24.072Z,34.79
2023-04-19T22:02:54.091Z,35.59
2023-04-19T22:05:24.272Z,34.98
2023-04-19T22:07:54.152Z,34.91
2023-04-19T22:10:24.027Z,35.28
2023-04-19T22:12:58.541Z,34.86
2023-04-19T22:15:25.882Z,35.44
2023-04-19T22:17:57.524Z,35.07
2023-04-19T22:20:27.278Z,35.51
2023-04-19T22:22:57.357Z,35.47
2023-04-19T22:25:27.254Z,35.69
2023-04-19T22:27:57.084Z,35.70
2023-04-19T22:30:27.042Z,35.70
2023-04-19T22:32:56.893Z,35.78
2023-04-19T22:35:26.762Z,35.97
2023-04-19T22:37:56.859Z,36.13
2023-04-19T22:40:26.527Z,36.22
2023-04-19T22:42:56.319Z,36.78
2023-04-19T22:45:26.350Z,36.78
2023-04-19T22:47:56.173Z,36.17
2023-04-19T22:50:26.223Z,36.12
2023-04-19T22:52:56.014Z,35.87
2023-04-19T22:55:25.893Z,36.27
2023-04-19T22:57:55.992Z,36.13
2023-04-19T23:00:26.485Z,36.45
2023-04-19T23:02:58.224Z,36.21
2023-04-19T23:05:28.343Z,36.39
2023-04-19T23:07:59.485Z,36.23
2023-04-19T23:10:29.298Z,36.36
2023-04-19T23:12:59.281Z,36.45
2023-04-19T23:15:29.407Z,36.51
2023-04-19T23:17:59.608Z,36.44
2023-04-19T23:20:30.075Z,36.39
2023-04-19T23:22:59.968Z,36.48
2023-04-19T23:25:30.019Z,36.55
2023-04-19T23:27:59.825Z,36.56
2023-04-19T23:30:31.357Z,36.98
2023-04-19T23:33:01.225Z,36.67
2023-04-19T23:35:31.127Z,36.64
2023-04-19T23:38:01.045Z,36.51
2023-04-19T23:40:31.202Z,36.57
2023-04-19T23:43:01.117Z,36.67
2023-04-19T23:45:30.896Z,36.59
2023-04-19T23:48:00.761Z,36.93
2023-04-19T23:50:30.926Z,36.78
2023-04-19T23:53:00.744Z,37.30
2023-04-19T23:55:30.596Z,37.24
2023-04-19T23:58:00.412Z,37.38
